sensor_id;sensor_type;location;lat;lon;timestamp;P1;durP1;ratioP1;P2;durP2;ratioP2
43861;SDS011;29510;52.140;5.034;2022-11-15T00:04:13;23.67;;;12.05;;
43861;SDS011;29510;52.140;5.034;2022-11-15T00:14:14;23.73;;;12.00;;
43861;SDS011;29510;52.140;5.034;2022-11-15T00:24:15;22.25;;;13.20;;
43861;SDS011;29510;52.140;5.034;2022-11-15T00:34:16;28.05;;;15.07;;
43861;SDS011;29510;52.140;5.034;2022-11-15T00:44:17;30.30;;;15.20;;
43861;SDS011;29510;52.140;5.034;2022-11-15T00:54:18;33.42;;;16.17;;
43861;SDS011;29510;52.140;5.034;2022-11-15T01:04:19;29.33;;;16.20;;
43861;SDS011;29510;52.140;5.034;2022-11-15T01:14:20;30.52;;;16.60;;
43861;SDS011;29510;52.140;5.034;2022-11-15T01:24:21;32.35;;;15.48;;
43861;SDS011;29510;52.140;5.034;2022-11-15T01:34:22;30.55;;;16.85;;
43861;SDS011;29510;52.140;5.034;2022-11-15T01:54:47;28.52;;;15.75;;
43861;SDS011;29510;52.140;5.034;2022-11-15T02:04:51;35.60;;;17.90;;
43861;SDS011;29510;52.140;5.034;2022-11-15T02:14:52;33.33;;;16.27;;
43861;SDS011;29510;52.140;5.034;2022-11-15T02:45:55;31.40;;;16.33;;
43861;SDS011;29510;52.140;5.034;2022-11-15T02:56:02;36.72;;;16.77;;
43861;SDS011;29510;52.140;5.034;2022-11-15T03:06:06;29.13;;;16.33;;
43861;SDS011;29510;52.140;5.034;2022-11-15T03:16:44;32.45;;;17.20;;
43861;SDS011;29510;52.140;5.034;2022-11-15T03:26:48;39.50;;;15.52;;
43861;SDS011;29510;52.140;5.034;2022-11-15T03:36:52;24.83;;;13.93;;
43861;SDS011;29510;52.140;5.034;2022-11-15T03:46:59;21.90;;;12.13;;
43861;SDS011;29510;52.140;5.034;2022-11-15T03:57:02;19.02;;;13.00;;
43861;SDS011;29510;52.140;5.034;2022-11-15T04:07:03;24.35;;;12.27;;
43861;SDS011;29510;52.140;5.034;2022-11-15T04:17:05;20.25;;;11.52;;
43861;SDS011;29510;52.140;5.034;2022-11-15T04:27:06;29.92;;;11.90;;
43861;SDS011;29510;52.140;5.034;2022-11-15T04:37:07;23.80;;;10.38;;
43861;SDS011;29510;52.140;5.034;2022-11-15T04:47:14;17.53;;;10.40;;
43861;SDS011;29510;52.140;5.034;2022-11-15T04:57:15;20.48;;;10.55;;
43861;SDS011;29510;52.140;5.034;2022-11-15T05:07:16;17.08;;;8.68;;
43861;SDS011;29510;52.140;5.034;2022-11-15T05:17:17;14.93;;;8.20;;
43861;SDS011;29510;52.140;5.034;2022-11-15T05:27:18;13.13;;;6.93;;
43861;SDS011;29510;52.140;5.034;2022-11-15T05:37:19;14.65;;;6.80;;
43861;SDS011;29510;52.140;5.034;2022-11-15T05:47:21;9.52;;;6.53;;
43861;SDS011;29510;52.140;5.034;2022-11-15T05:57:24;13.45;;;7.80;;
43861;SDS011;29510;52.140;5.034;2022-11-15T06:07:25;13.25;;;6.30;;
43861;SDS011;29510;52.140;5.034;2022-11-15T06:17:26;12.43;;;6.47;;
43861;SDS011;29510;52.140;5.034;2022-11-15T06:27:27;13.52;;;7.53;;
43861;SDS011;29510;52.140;5.034;2022-11-15T06:37:28;15.90;;;5.85;;
43861;SDS011;29510;52.140;5.034;2022-11-15T06:47:29;9.60;;;6.00;;
43861;SDS011;29510;52.140;5.034;2022-11-15T06:57:30;11.27;;;6.75;;
43861;SDS011;29510;52.140;5.034;2022-11-15T07:07:32;9.80;;;5.50;;
43861;SDS011;29510;52.140;5.034;2022-11-15T07:17:33;10.80;;;6.38;;
43861;SDS011;29510;52.140;5.034;2022-11-15T07:27:34;11.93;;;5.88;;
43861;SDS011;29510;52.140;5.034;2022-11-15T07:37:35;10.50;;;5.30;;
43861;SDS011;29510;52.140;5.034;2022-11-15T07:47:36;9.10;;;5.93;;
43861;SDS011;29510;52.140;5.034;2022-11-15T07:57:37;12.15;;;6.13;;
43861;SDS011;29510;52.140;5.034;2022-11-15T08:07:38;10.65;;;5.40;;
43861;SDS011;29510;52.140;5.034;2022-11-15T08:17:40;8.45;;;5.10;;
43861;SDS011;29510;52.140;5.034;2022-11-15T08:27:41;6.88;;;4.28;;
43861;SDS011;29510;52.140;5.034;2022-11-15T08:37:43;9.32;;;4.15;;
43861;SDS011;29510;52.140;5.034;2022-11-15T08:47:44;6.78;;;3.78;;
43861;SDS011;29510;52.140;5.034;2022-11-15T08:57:45;6.38;;;3.10;;
43861;SDS011;29510;52.140;5.034;2022-11-15T09:07:46;4.65;;;2.17;;
43861;SDS011;29510;52.140;5.034;2022-11-15T09:17:47;6.00;;;2.55;;
43861;SDS011;29510;52.140;5.034;2022-11-15T09:27:48;4.55;;;2.40;;
43861;SDS011;29510;52.140;5.034;2022-11-15T09:37:49;8.27;;;2.90;;
43861;SDS011;29510;52.140;5.034;2022-11-15T09:47:56;4.30;;;2.05;;
43861;SDS011;29510;52.140;5.034;2022-11-15T10:08:30;3.92;;;1.95;;
43861;SDS011;29510;52.140;5.034;2022-11-15T10:18:51;3.50;;;1.67;;
43861;SDS011;29510;52.140;5.034;2022-11-15T10:39:05;3.10;;;1.55;;
43861;SDS011;29510;52.140;5.034;2022-11-15T10:49:21;3.17;;;1.40;;
43861;SDS011;29510;52.140;5.034;2022-11-15T10:59:29;2.47;;;1.37;;
43861;SDS011;29510;52.140;5.034;2022-11-15T11:09:38;2.42;;;1.15;;
43861;SDS011;29510;52.140;5.034;2022-11-15T11:19:55;1.20;;;0.65;;
43861;SDS011;29510;52.140;5.034;2022-11-15T11:30:09;2.17;;;1.02;;
43861;SDS011;29510;52.140;5.034;2022-11-15T11:40:28;0.82;;;0.38;;
43861;SDS011;29510;52.140;5.034;2022-11-15T11:50:36;1.42;;;0.88;;
43861;SDS011;29510;52.140;5.034;2022-11-15T12:00:40;0.93;;;0.35;;
43861;SDS011;29510;52.140;5.034;2022-11-15T12:10:47;1.08;;;0.38;;
43861;SDS011;29510;52.140;5.034;2022-11-15T12:31:03;1.35;;;0.47;;
43861;SDS011;29510;52.140;5.034;2022-11-15T12:41:13;1.30;;;0.50;;
43861;SDS011;29510;52.140;5.034;2022-11-15T12:51:16;2.13;;;0.28;;
43861;SDS011;29510;52.140;5.034;2022-11-15T13:11:43;2.17;;;0.50;;
43861;SDS011;29510;52.140;5.034;2022-11-15T13:21:49;8.10;;;0.85;;
43861;SDS011;29510;52.140;5.034;2022-11-15T13:32:12;1.50;;;0.65;;
43861;SDS011;29510;52.140;5.034;2022-11-15T13:42:15;1.17;;;0.30;;
43861;SDS011;29510;52.140;5.034;2022-11-15T13:52:17;1.95;;;0.55;;
43861;SDS011;29510;52.140;5.034;2022-11-15T14:02:19;0.57;;;0.28;;
43861;SDS011;29510;52.140;5.034;2022-11-15T14:12:30;1.40;;;0.70;;
43861;SDS011;29510;52.140;5.034;2022-11-15T14:22:33;0.57;;;0.32;;
43861;SDS011;29510;52.140;5.034;2022-11-15T14:32:41;2.60;;;0.60;;
43861;SDS011;29510;52.140;5.034;2022-11-15T14:42:45;2.97;;;0.50;;
43861;SDS011;29510;52.140;5.034;2022-11-15T14:52:48;2.90;;;0.75;;
43861;SDS011;29510;52.140;5.034;2022-11-15T15:02:50;2.88;;;0.50;;
43861;SDS011;29510;52.140;5.034;2022-11-15T15:12:53;0.98;;;0.30;;
43861;SDS011;29510;52.140;5.034;2022-11-15T15:22:54;3.63;;;0.98;;
43861;SDS011;29510;52.140;5.034;2022-11-15T15:32:56;1.08;;;0.30;;
43861;SDS011;29510;52.140;5.034;2022-11-15T15:42:57;1.92;;;1.08;;
43861;SDS011;29510;52.140;5.034;2022-11-15T15:52:58;2.55;;;0.60;;
43861;SDS011;29510;52.140;5.034;2022-11-15T16:03:01;0.88;;;0.50;;
43861;SDS011;29510;52.140;5.034;2022-11-15T16:13:02;1.33;;;0.50;;
43861;SDS011;29510;52.140;5.034;2022-11-15T16:23:04;1.52;;;0.68;;
43861;SDS011;29510;52.140;5.034;2022-11-15T16:33:07;2.00;;;0.30;;
43861;SDS011;29510;52.140;5.034;2022-11-15T16:43:08;3.08;;;1.35;;
43861;SDS011;29510;52.140;5.034;2022-11-15T16:53:10;2.33;;;0.80;;
43861;SDS011;29510;52.140;5.034;2022-11-15T17:03:11;1.73;;;0.43;;
43861;SDS011;29510;52.140;5.034;2022-11-15T17:13:12;2.30;;;1.27;;
43861;SDS011;29510;52.140;5.034;2022-11-15T17:23:13;3.90;;;1.02;;
43861;SDS011;29510;52.140;5.034;2022-11-15T17:33:14;1.25;;;0.60;;
43861;SDS011;29510;52.140;5.034;2022-11-15T17:43:15;2.03;;;0.82;;
43861;SDS011;29510;52.140;5.034;2022-11-15T17:53:16;1.77;;;0.75;;
43861;SDS011;29510;52.140;5.034;2022-11-15T18:03:17;9.23;;;1.92;;
43861;SDS011;29510;52.140;5.034;2022-11-15T18:13:18;2.20;;;1.30;;
43861;SDS011;29510;52.140;5.034;2022-11-15T18:23:19;3.10;;;1.17;;
43861;SDS011;29510;52.140;5.034;2022-11-15T18:33:20;7.85;;;1.75;;
43861;SDS011;29510;52.140;5.034;2022-11-15T18:43:21;2.42;;;1.00;;
43861;SDS011;29510;52.140;5.034;2022-11-15T18:53:22;4.50;;;2.15;;
43861;SDS011;29510;52.140;5.034;2022-11-15T19:03:23;2.83;;;1.50;;
43861;SDS011;29510;52.140;5.034;2022-11-15T19:13:24;5.45;;;1.98;;
43861;SDS011;29510;52.140;5.034;2022-11-15T19:23:25;2.30;;;1.63;;
43861;SDS011;29510;52.140;5.034;2022-11-15T19:33:26;4.40;;;2.25;;
43861;SDS011;29510;52.140;5.034;2022-11-15T19:43:27;5.38;;;2.67;;
43861;SDS011;29510;52.140;5.034;2022-11-15T19:53:29;5.47;;;2.22;;
43861;SDS011;29510;52.140;5.034;2022-11-15T20:03:31;17.77;;;3.78;;
43861;SDS011;29510;52.140;5.034;2022-11-15T20:13:32;10.63;;;4.18;;
43861;SDS011;29510;52.140;5.034;2022-11-15T20:23:33;4.78;;;2.58;;
43861;SDS011;29510;52.140;5.034;2022-11-15T20:33:34;4.97;;;2.83;;
43861;SDS011;29510;52.140;5.034;2022-11-15T20:43:36;5.70;;;3.13;;
43861;SDS011;29510;52.140;5.034;2022-11-15T20:53:37;7.07;;;4.35;;
43861;SDS011;29510;52.140;5.034;2022-11-15T21:03:38;12.25;;;4.03;;
43861;SDS011;29510;52.140;5.034;2022-11-15T21:13:39;6.47;;;3.42;;
43861;SDS011;29510;52.140;5.034;2022-11-15T21:23:40;5.35;;;3.05;;
43861;SDS011;29510;52.140;5.034;2022-11-15T21:33:41;5.65;;;3.28;;
43861;SDS011;29510;52.140;5.034;2022-11-15T21:43:42;5.53;;;2.75;;
43861;SDS011;29510;52.140;5.034;2022-11-15T21:53:43;4.32;;;2.63;;
43861;SDS011;29510;52.140;5.034;2022-11-15T22:03:44;4.80;;;2.58;;
43861;SDS011;29510;52.140;5.034;2022-11-15T22:13:45;11.07;;;4.50;;
43861;SDS011;29510;52.140;5.034;2022-11-15T22:23:48;5.78;;;2.55;;
43861;SDS011;29510;52.140;5.034;2022-11-15T22:33:49;6.85;;;3.80;;
43861;SDS011;29510;52.140;5.034;2022-11-15T22:43:50;4.93;;;3.28;;
43861;SDS011;29510;52.140;5.034;2022-11-15T22:53:51;6.55;;;3.58;;
43861;SDS011;29510;52.140;5.034;2022-11-15T23:03:52;5.85;;;3.38;;
43861;SDS011;29510;52.140;5.034;2022-11-15T23:13:53;4.93;;;3.15;;
43861;SDS011;29510;52.140;5.034;2022-11-15T23:23:54;4.13;;;2.63;;
43861;SDS011;29510;52.140;5.034;2022-11-15T23:33:55;5.07;;;3.03;;
43861;SDS011;29510;52.140;5.034;2022-11-15T23:43:58;5.88;;;3.22;;
43861;SDS011;29510;52.140;5.034;2022-11-15T23:53:59;4.70;;;2.92;;
